createdAt,value
2023-01-07T00:01:44.900Z,75.45
2023-01-07T00:04:14.996Z,75.50
2023-01-07T00:06:44.054Z,75.39
2023-01-07T00:09:13.948Z,75.57
2023-01-07T00:11:41.792Z,75.45
2023-01-07T00:14:12.628Z,75.63
2023-01-07T00:16:40.773Z,75.62
2023-01-07T00:19:10.759Z,75.57
2023-01-07T00:21:37.790Z,75.65
2023-01-07T00:24:07.356Z,75.64
2023-01-07T00:26:35.932Z,75.76
2023-01-07T00:29:04.409Z,75.92
2023-01-07T00:31:34.123Z,75.91
2023-01-07T00:34:02.063Z,75.93
2023-01-07T00:36:31.579Z,76.11
2023-01-07T00:39:20.601Z,76.15
2023-01-07T00:42:07.531Z,76.30
2023-01-07T00:44:34.957Z,76.27
2023-01-07T00:47:02.601Z,76.27
2023-01-07T00:49:29.782Z,76.43
2023-01-07T00:51:56.883Z,76.36
2023-01-07T00:54:24.649Z,76.27
2023-01-07T00:56:51.836Z,76.04
2023-01-07T00:59:18.904Z,75.98
2023-01-07T01:01:46.713Z,76.03
2023-01-07T01:04:13.870Z,75.90
2023-01-07T01:06:41.011Z,75.89
2023-01-07T01:09:08.366Z,75.94
2023-01-07T01:11:35.456Z,76.06
2023-01-07T01:14:02.496Z,75.88
2023-01-07T01:16:30.035Z,75.41
2023-01-07T01:18:57.184Z,75.41
2023-01-07T01:21:24.459Z,74.89
2023-01-07T01:23:51.700Z,74.83
2023-01-07T01:26:18.876Z,74.91
2023-01-07T01:28:46.752Z,74.92
2023-01-07T01:31:18.900Z,74.89
2023-01-07T01:33:54.826Z,74.99
2023-01-07T01:36:22.123Z,74.93
2023-01-07T01:38:50.817Z,74.92
2023-01-07T01:41:17.949Z,74.86
2023-01-07T01:43:46.818Z,74.96
2023-01-07T01:46:19.859Z,74.87
2023-01-07T01:48:50.677Z,74.89
2023-01-07T01:51:19.895Z,74.86
2023-01-07T01:53:47.163Z,74.66
2023-01-07T01:56:18.429Z,74.67
2023-01-07T01:58:53.109Z,74.47
2023-01-07T02:01:20.492Z,74.23
2023-01-07T02:03:48.535Z,74.29
2023-01-07T02:06:25.427Z,74.32
2023-01-07T02:08:53.963Z,74.67
2023-01-07T02:11:34.193Z,74.74
2023-01-07T02:14:08.760Z,74.57
2023-01-07T02:17:02.396Z,74.72
2023-01-07T02:20:06.555Z,74.88
2023-01-07T02:22:58.614Z,75.01
2023-01-07T02:25:50.492Z,75.12
2023-01-07T02:28:36.077Z,75.37
2023-01-07T02:31:27.623Z,75.54
2023-01-07T02:34:08.281Z,75.41
2023-01-07T02:36:36.467Z,75.71
2023-01-07T02:39:24.917Z,75.66
2023-01-07T02:41:54.908Z,75.64
2023-01-07T02:44:39.210Z,75.49
2023-01-07T02:47:28.703Z,75.31
2023-01-07T02:49:58.704Z,75.13
2023-01-07T02:52:32.530Z,75.10
2023-01-07T02:55:10.987Z,75.31
2023-01-07T02:58:10.053Z,75.44
2023-01-07T03:00:51.849Z,75.53
2023-01-07T03:03:37.289Z,75.75
2023-01-07T03:06:33.768Z,75.52
2023-01-07T03:09:00.753Z,75.44
2023-01-07T03:11:34.497Z,75.54
2023-01-07T03:14:31.177Z,75.56
2023-01-07T03:17:03.091Z,75.51
2023-01-07T03:19:33.052Z,75.40
2023-01-07T03:22:01.892Z,75.31
2023-01-07T03:24:31.876Z,75.42
2023-01-07T03:27:00.843Z,75.54
2023-01-07T03:29:28.557Z,75.30
2023-01-07T03:32:09.914Z,75.33
2023-01-07T03:34:37.644Z,75.40
2023-01-07T03:37:12.165Z,75.55
2023-01-07T03:39:40.558Z,75.62
2023-01-07T03:42:28.358Z,75.78
2023-01-07T03:44:55.874Z,75.42
2023-01-07T03:47:26.261Z,75.48
2023-01-07T03:49:53.245Z,75.45
2023-01-07T03:52:20.723Z,75.39
2023-01-07T03:54:47.732Z,75.29
2023-01-07T03:57:15.953Z,75.53
2023-01-07T03:59:43.052Z,75.47
2023-01-07T04:02:10.415Z,75.65
2023-01-07T04:04:37.630Z,76.07
2023-01-07T04:07:04.810Z,75.97
2023-01-07T04:09:31.980Z,76.01
2023-01-07T04:11:58.943Z,75.97
2023-01-07T04:14:26.100Z,75.99
2023-01-07T04:16:53.272Z,75.93
2023-01-07T04:19:20.463Z,76.14
2023-01-07T04:21:47.544Z,76.09
2023-01-07T04:24:14.685Z,76.20
2023-01-07T04:26:42.561Z,76.00
2023-01-07T04:29:11.562Z,75.77
2023-01-07T04:31:39.040Z,75.94
2023-01-07T04:34:06.315Z,75.74
2023-01-07T04:36:33.473Z,75.71
2023-01-07T04:39:01.826Z,75.71
2023-01-07T04:41:28.956Z,75.55
2023-01-07T04:43:57.057Z,75.69
2023-01-07T04:46:25.379Z,75.86
2023-01-07T04:48:53.041Z,75.73
2023-01-07T04:51:20.976Z,75.38
2023-01-07T04:53:48.286Z,75.38
2023-01-07T04:56:15.531Z,75.42
2023-01-07T04:58:43.964Z,75.43
2023-01-07T05:01:12.188Z,75.36
2023-01-07T05:03:39.722Z,75.39
2023-01-07T05:06:06.967Z,75.55
2023-01-07T05:08:34.028Z,75.58
2023-01-07T05:11:02.304Z,75.50
2023-01-07T05:13:31.879Z,75.41
2023-01-07T05:16:00.907Z,75.74
2023-01-07T05:18:28.442Z,75.81
2023-01-07T05:20:55.583Z,75.80
2023-01-07T05:23:22.561Z,75.77
2023-01-07T05:25:50.756Z,75.83
2023-01-07T05:28:18.945Z,76.00
2023-01-07T05:30:47.189Z,75.91
2023-01-07T05:33:14.381Z,75.87
2023-01-07T05:35:42.017Z,76.18
2023-01-07T05:38:09.265Z,76.24
2023-01-07T05:40:36.878Z,76.15
2023-01-07T05:43:04.329Z,76.07
2023-01-07T05:45:32.457Z,76.16
2023-01-07T05:48:00.328Z,76.23
2023-01-07T05:50:27.411Z,76.02
2023-01-07T05:52:54.543Z,76.10
2023-01-07T05:55:42.453Z,76.02
2023-01-07T05:58:14.819Z,75.86
2023-01-07T06:00:42.079Z,75.96
2023-01-07T06:03:09.571Z,75.87
2023-01-07T06:05:36.781Z,75.67
2023-01-07T06:08:04.189Z,75.79
2023-01-07T06:10:31.280Z,75.62
2023-01-07T06:12:58.529Z,75.64
2023-01-07T06:15:26.185Z,75.74
2023-01-07T06:17:53.238Z,75.77
2023-01-07T06:20:21.530Z,75.75
2023-01-07T06:22:51.591Z,75.62
2023-01-07T06:25:18.658Z,75.43
2023-01-07T06:27:46.077Z,75.35
2023-01-07T06:30:13.593Z,75.16
2023-01-07T06:32:42.496Z,75.20
2023-01-07T06:35:11.404Z,75.24
2023-01-07T06:37:42.472Z,75.54
2023-01-07T06:40:09.973Z,75.44
2023-01-07T06:42:37.356Z,75.33
2023-01-07T06:45:06.374Z,75.51
2023-01-07T06:47:35.172Z,75.05
2023-01-07T06:50:02.436Z,75.01
2023-01-07T06:52:30.610Z,74.81
2023-01-07T06:54:57.700Z,74.80
2023-01-07T06:57:25.265Z,74.75
2023-01-07T06:59:52.539Z,74.68
2023-01-07T07:02:28.387Z,74.63
2023-01-07T07:04:56.612Z,74.72
2023-01-07T07:07:27.912Z,74.66
2023-01-07T07:09:57.814Z,74.68
2023-01-07T07:12:30.510Z,74.18
2023-01-07T07:15:00.865Z,74.44
2023-01-07T07:17:27.860Z,74.55
2023-01-07T07:19:57.137Z,74.18
2023-01-07T07:22:26.951Z,73.78
2023-01-07T07:24:53.910Z,73.40
2023-01-07T07:27:21.012Z,73.22
2023-01-07T07:29:48.164Z,73.26
2023-01-07T07:32:15.373Z,72.90
2023-01-07T07:34:43.098Z,72.43
2023-01-07T07:37:10.348Z,72.08
2023-01-07T07:39:38.095Z,71.68
2023-01-07T07:42:07.848Z,70.89
2023-01-07T07:44:36.715Z,70.55
2023-01-07T07:47:04.204Z,69.77
2023-01-07T07:49:31.858Z,68.98
2023-01-07T07:51:59.148Z,68.91
2023-01-07T07:54:26.161Z,68.35
2023-01-07T07:56:53.262Z,67.91
2023-01-07T07:59:20.374Z,67.57
2023-01-07T08:01:47.635Z,67.11
2023-01-07T08:04:14.630Z,66.01
2023-01-07T08:06:45.464Z,65.61
2023-01-07T08:09:21.348Z,64.85
2023-01-07T08:11:48.932Z,65.18
2023-01-07T08:14:26.385Z,64.73
2023-01-07T08:16:56.413Z,63.81
2023-01-07T08:19:26.521Z,63.27
2023-01-07T08:21:55.807Z,62.48
2023-01-07T08:24:22.890Z,62.33
2023-01-07T08:29:31.623Z,60.81
2023-01-07T08:32:03.555Z,60.21
2023-01-07T08:34:35.108Z,59.62
2023-01-07T08:37:03.605Z,58.92
2023-01-07T08:39:30.657Z,58.07
2023-01-07T08:41:57.980Z,57.69
2023-01-07T08:44:25.173Z,56.65
2023-01-07T08:46:53.627Z,57.12
2023-01-07T08:49:20.771Z,57.54
2023-01-07T08:51:48.136Z,57.75
2023-01-07T08:54:18.650Z,57.28
2023-01-07T08:56:45.816Z,57.21
2023-01-07T08:59:12.862Z,56.61
2023-01-07T09:01:41.083Z,56.46
2023-01-07T09:04:08.802Z,55.51
2023-01-07T09:07:00.889Z,55.23
2023-01-07T09:09:40.125Z,54.69
2023-01-07T09:12:10.899Z,54.02
2023-01-07T09:14:39.667Z,54.37
2023-01-07T09:20:16.894Z,53.87
2023-01-07T09:22:45.082Z,54.09
2023-01-07T09:25:13.348Z,54.02
2023-01-07T09:27:42.413Z,53.92
2023-01-07T09:30:14.516Z,53.73
2023-01-07T09:32:44.076Z,53.10
2023-01-07T09:35:11.599Z,52.62
2023-01-07T09:37:38.740Z,52.08
2023-01-07T09:40:20.897Z,51.76
2023-01-07T09:43:07.412Z,51.47
2023-01-07T09:46:01.102Z,50.94
2023-01-07T09:48:35.856Z,51.42
2023-01-07T09:51:04.615Z,51.25
2023-01-07T09:53:39.074Z,50.63
2023-01-07T09:56:13.971Z,50.16
2023-01-07T09:58:45.546Z,49.36
2023-01-07T10:01:41.072Z,48.97
2023-01-07T10:04:41.889Z,48.31
2023-01-07T10:07:33.119Z,48.39
2023-01-07T10:10:21.042Z,48.70
2023-01-07T10:13:23.063Z,47.78
2023-01-07T10:15:59.353Z,46.94
2023-01-07T10:18:36.912Z,47.35
2023-01-07T10:21:11.554Z,46.46
2023-01-07T10:23:44.743Z,47.14
2023-01-07T10:26:48.454Z,46.59
2023-01-07T10:30:02.695Z,46.77
2023-01-07T10:32:35.779Z,46.34
2023-01-07T10:35:05.507Z,46.67
2023-01-07T10:37:35.078Z,46.32
2023-01-07T10:40:04.714Z,46.25
2023-01-07T10:42:56.900Z,45.93
2023-01-07T10:45:24.643Z,45.64
2023-01-07T10:48:10.660Z,45.23
2023-01-07T10:50:56.286Z,45.68
2023-01-07T10:53:43.813Z,45.55
2023-01-07T10:56:37.488Z,44.87
2023-01-07T10:59:05.346Z,44.96
2023-01-07T11:01:37.776Z,44.93
2023-01-07T11:04:22.271Z,44.32
2023-01-07T11:06:49.374Z,44.77
2023-01-07T11:09:35.726Z,44.65
2023-01-07T11:12:25.775Z,44.19
2023-01-07T11:14:53.989Z,43.47
2023-01-07T11:17:27.105Z,44.72
2023-01-07T11:19:54.321Z,44.80
2023-01-07T11:22:27.368Z,44.61
2023-01-07T11:24:54.870Z,45.08
2023-01-07T11:27:24.836Z,44.97
2023-01-07T11:30:21.907Z,45.06
2023-01-07T11:33:06.305Z,45.33
2023-01-07T11:35:33.684Z,45.17
2023-01-07T11:38:00.889Z,45.14
2023-01-07T11:40:30.193Z,44.74
2023-01-07T11:43:01.574Z,45.28
2023-01-07T11:45:30.551Z,45.17
2023-01-07T11:48:03.585Z,45.86
2023-01-07T11:50:41.798Z,46.14
2023-01-07T11:53:14.918Z,46.30
2023-01-07T11:56:04.400Z,45.98
2023-01-07T11:58:37.458Z,46.48
2023-01-07T12:01:10.855Z,46.95
2023-01-07T12:03:43.354Z,47.04
2023-01-07T12:06:24.231Z,47.40
2023-01-07T12:08:56.463Z,47.74
2023-01-07T12:11:35.775Z,48.34
2023-01-07T12:14:11.843Z,48.64
2023-01-07T12:16:39.828Z,48.56
2023-01-07T12:19:22.790Z,48.97
2023-01-07T12:21:56.184Z,50.30
2023-01-07T12:24:53.654Z,53.13
2023-01-07T12:27:58.022Z,54.16
2023-01-07T12:30:40.600Z,54.40
2023-01-07T12:33:21.517Z,55.71
2023-01-07T12:36:18.724Z,56.84
2023-01-07T12:38:45.724Z,56.78
2023-01-07T12:41:20.906Z,55.74
2023-01-07T12:44:19.090Z,55.16
2023-01-07T12:47:31.249Z,54.92
2023-01-07T12:50:11.698Z,55.39
2023-01-07T12:52:48.518Z,56.34
2023-01-07T12:55:25.469Z,56.91
2023-01-07T12:58:27.417Z,57.05
2023-01-07T13:00:57.071Z,57.62
2023-01-07T13:03:51.152Z,58.38
2023-01-07T13:06:23.729Z,59.16
2023-01-07T13:12:07.532Z,61.09
2023-01-07T13:14:57.876Z,62.07
2023-01-07T13:17:28.104Z,62.71
2023-01-07T13:19:55.258Z,63.51
2023-01-07T13:22:52.957Z,63.83
2023-01-07T13:25:26.054Z,64.48
2023-01-07T13:28:20.530Z,65.01
2023-01-07T13:31:13.475Z,65.73
2023-01-07T13:33:59.617Z,66.06
2023-01-07T13:36:37.680Z,66.31
2023-01-07T13:39:04.529Z,66.75
2023-01-07T13:42:13.688Z,66.79
2023-01-07T13:45:02.992Z,67.03
2023-01-07T13:47:49.847Z,67.45
2023-01-07T13:50:22.239Z,67.59
2023-01-07T13:52:59.191Z,67.77
2023-01-07T13:55:45.499Z,68.23
2023-01-07T13:58:30.849Z,68.70
2023-01-07T14:01:02.492Z,68.72
2023-01-07T14:03:39.110Z,68.83
2023-01-07T14:06:21.002Z,68.93
2023-01-07T14:09:06.148Z,69.09
2023-01-07T14:11:33.404Z,69.32
2023-01-07T14:14:26.301Z,69.47
2023-01-07T14:17:24.034Z,69.66
2023-01-07T14:20:06.336Z,69.86
2023-01-07T14:22:59.768Z,70.04
2023-01-07T14:25:33.959Z,70.42
2023-01-07T14:28:16.720Z,70.59
2023-01-07T14:30:46.735Z,70.60
2023-01-07T14:33:24.263Z,70.49
2023-01-07T14:36:00.402Z,70.64
2023-01-07T14:38:30.536Z,70.96
2023-01-07T14:41:13.375Z,70.95
2023-01-07T14:43:44.180Z,71.16
2023-01-07T14:46:32.411Z,70.90
2023-01-07T14:57:37.934Z,71.33
2023-01-07T15:00:43.712Z,71.76
2023-01-07T15:03:39.367Z,71.82
2023-01-07T15:06:26.099Z,71.80
2023-01-07T15:09:31.939Z,72.14
2023-01-07T15:12:34.219Z,72.10
2023-01-07T15:15:22.280Z,72.37
2023-01-07T15:17:49.840Z,72.40
2023-01-07T15:20:17.178Z,72.41
2023-01-07T15:22:49.865Z,72.08
2023-01-07T15:25:30.131Z,71.71
2023-01-07T15:28:13.089Z,71.81
2023-01-07T15:30:46.464Z,71.69
2023-01-07T15:33:40.609Z,71.87
2023-01-07T15:36:11.672Z,72.00
2023-01-07T15:38:44.629Z,72.11
2023-01-07T15:41:35.672Z,72.10
2023-01-07T15:44:09.723Z,72.11
2023-01-07T15:46:40.113Z,72.28
2023-01-07T15:49:10.347Z,72.13
2023-01-07T15:51:42.917Z,71.96
2023-01-07T15:54:37.757Z,71.78
2023-01-07T15:57:12.049Z,72.00
2023-01-07T15:59:43.156Z,71.73
2023-01-07T16:02:27.689Z,71.64
2023-01-07T16:05:01.258Z,71.78
2023-01-07T16:07:32.081Z,71.71
2023-01-07T16:10:00.907Z,71.62
2023-01-07T16:12:37.622Z,71.92
2023-01-07T16:15:21.211Z,72.07
2023-01-07T16:18:01.469Z,72.11
2023-01-07T16:20:32.695Z,72.24
2023-01-07T16:23:09.020Z,72.20
2023-01-07T16:25:49.144Z,72.15
2023-01-07T16:28:19.057Z,72.35
2023-01-07T16:30:46.345Z,72.57
2023-01-07T16:33:20.671Z,72.91
2023-01-07T16:36:18.560Z,73.09
2023-01-07T16:38:46.920Z,73.02
2023-01-07T16:41:24.047Z,73.28
2023-01-07T16:43:54.535Z,73.61
2023-01-07T16:46:36.285Z,73.67
2023-01-07T16:49:09.170Z,73.77
2023-01-07T16:51:53.217Z,73.83
2023-01-07T16:54:29.623Z,74.18
2023-01-07T16:57:10.656Z,74.32
2023-01-07T16:59:53.823Z,74.56
2023-01-07T17:02:52.354Z,74.31
2023-01-07T17:05:25.039Z,74.54
2023-01-07T17:08:08.063Z,74.58
2023-01-07T17:10:50.656Z,74.80
2023-01-07T17:16:23.210Z,74.72
2023-01-07T17:18:51.036Z,75.13
2023-01-07T17:22:00.472Z,75.17
2023-01-07T17:24:39.657Z,75.02
2023-01-07T17:27:26.426Z,75.01
2023-01-07T17:29:56.764Z,75.09
2023-01-07T17:32:27.768Z,75.10
2023-01-07T17:35:05.969Z,75.26
2023-01-07T17:46:50.478Z,75.10
2023-01-07T17:49:18.286Z,75.03
2023-01-07T17:54:30.851Z,75.20
2023-01-07T17:56:58.182Z,75.00
2023-01-07T17:59:25.175Z,75.02
2023-01-07T18:01:53.289Z,75.14
2023-01-07T18:04:21.664Z,75.04
2023-01-07T18:06:48.635Z,75.08
2023-01-07T18:09:15.556Z,75.13
2023-01-07T18:12:03.106Z,75.15
2023-01-07T18:14:32.331Z,75.31
2023-01-07T18:17:00.517Z,75.28
2023-01-07T18:19:28.925Z,75.29
2023-01-07T18:45:48.996Z,76.35
2023-01-07T18:48:20.643Z,76.48
2023-01-07T18:50:50.262Z,76.34
2023-01-07T18:53:27.922Z,76.47
2023-01-07T18:58:53.416Z,76.59
2023-01-07T19:04:02.889Z,76.49
2023-01-07T19:06:30.754Z,76.65
2023-01-07T19:09:02.014Z,76.52
2023-01-07T19:11:38.137Z,76.58
2023-01-07T19:14:05.555Z,76.46
2023-01-07T19:16:33.138Z,76.48
2023-01-07T19:19:00.385Z,76.36
2023-01-07T19:21:36.540Z,76.25
2023-01-07T19:24:04.693Z,76.45
2023-01-07T19:26:36.879Z,76.34
2023-01-07T19:29:04.245Z,76.02
2023-01-07T19:34:16.708Z,75.84
2023-01-07T19:36:50.736Z,76.13
2023-01-07T19:39:35.595Z,76.40
2023-01-07T19:42:11.490Z,76.17
2023-01-07T19:44:39.153Z,76.52
2023-01-07T19:47:12.164Z,76.16
2023-01-07T19:49:39.313Z,76.28
2023-01-07T19:52:07.084Z,76.61
2023-01-07T19:54:38.014Z,76.43
2023-01-07T19:57:11.433Z,76.65
2023-01-07T20:02:20.981Z,76.70
2023-01-07T20:04:52.418Z,77.30
2023-01-07T20:07:20.873Z,77.38
2023-01-07T20:09:59.391Z,77.47
2023-01-07T20:12:27.345Z,77.66
2023-01-07T20:14:54.504Z,77.79
2023-01-07T20:17:22.556Z,78.00
2023-01-07T20:22:31.397Z,78.25
2023-01-07T20:24:59.150Z,78.22
2023-01-07T20:27:28.782Z,78.62
2023-01-07T20:30:05.305Z,78.59
2023-01-07T20:32:33.064Z,78.60
2023-01-07T20:35:00.971Z,78.68
2023-01-07T20:37:33.227Z,78.46
2023-01-07T20:40:00.239Z,78.66
2023-01-07T20:42:27.645Z,78.48
2023-01-07T20:44:54.755Z,78.32
2023-01-07T20:47:21.875Z,78.44
2023-01-07T20:49:49.464Z,78.34
2023-01-07T20:52:16.515Z,78.31
2023-01-07T20:54:45.123Z,78.47
2023-01-07T20:57:18.963Z,78.54
2023-01-07T20:59:47.209Z,78.70
2023-01-07T21:02:16.629Z,78.80
2023-01-07T21:04:44.168Z,78.73
2023-01-07T21:07:11.730Z,78.76
2023-01-07T21:09:43.471Z,78.84
2023-01-07T21:12:10.680Z,78.93
2023-01-07T21:14:37.859Z,79.07
2023-01-07T21:17:05.018Z,78.90
2023-01-07T21:19:32.184Z,78.89
2023-01-07T21:22:00.568Z,78.79
2023-01-07T21:24:27.712Z,78.82
2023-01-07T21:26:54.921Z,78.77
2023-01-07T21:29:22.080Z,78.63
2023-01-07T21:31:49.102Z,78.53
2023-01-07T21:34:16.406Z,78.68
2023-01-07T21:36:43.677Z,78.72
2023-01-07T21:39:13.823Z,78.90
2023-01-07T21:41:40.909Z,78.64
2023-01-07T21:44:10.109Z,78.83
2023-01-07T21:46:37.586Z,78.78
2023-01-07T21:49:06.181Z,78.87
2023-01-07T21:51:42.515Z,78.65
2023-01-07T21:54:09.648Z,78.76
2023-01-07T21:57:02.663Z,78.93
2023-01-07T22:02:13.878Z,79.10
2023-01-07T22:04:43.377Z,79.13
2023-01-07T22:07:13.516Z,79.11
2023-01-07T22:09:40.870Z,79.00
2023-01-07T22:12:09.061Z,79.02
2023-01-07T22:14:35.988Z,79.12
2023-01-07T22:17:03.147Z,79.06
2023-01-07T22:19:30.175Z,79.15
2023-01-07T22:21:57.317Z,79.28
2023-01-07T22:24:24.443Z,79.14
2023-01-07T22:26:52.953Z,79.22
2023-01-07T22:29:19.854Z,79.44
2023-01-07T22:31:49.788Z,79.45
2023-01-07T22:34:19.253Z,79.34
2023-01-07T22:37:01.431Z,79.30
2023-01-07T22:39:36.421Z,79.29
2023-01-07T22:42:10.480Z,79.47
2023-01-07T22:44:50.210Z,79.02
2023-01-07T22:47:20.335Z,79.37
2023-01-07T22:49:49.021Z,79.52
2023-01-07T22:52:17.465Z,79.38
2023-01-07T22:54:44.721Z,79.12
2023-01-07T22:57:12.759Z,79.04
2023-01-07T22:59:39.897Z,79.24
2023-01-07T23:02:07.003Z,79.16
2023-01-07T23:04:34.048Z,79.12
2023-01-07T23:07:01.133Z,79.42
2023-01-07T23:09:28.098Z,79.54
2023-01-07T23:11:59.541Z,79.37
2023-01-07T23:14:28.198Z,79.66
2023-01-07T23:16:56.049Z,79.62
2023-01-07T23:19:23.031Z,79.68
2023-01-07T23:21:52.573Z,79.73
2023-01-07T23:24:20.117Z,79.80
2023-01-07T23:26:48.925Z,79.73
2023-01-07T23:29:16.236Z,79.99
2023-01-07T23:31:43.685Z,80.08
2023-01-07T23:34:10.711Z,80.11
2023-01-07T23:36:38.567Z,80.06
2023-01-07T23:39:06.645Z,80.01
2023-01-07T23:41:34.298Z,79.93
2023-01-07T23:44:01.352Z,79.88
2023-01-07T23:46:28.697Z,79.95
2023-01-07T23:48:55.833Z,79.93
2023-01-07T23:51:22.860Z,79.97
2023-01-07T23:53:50.127Z,80.06
2023-01-07T23:56:21.195Z,79.92
2023-01-07T23:58:49.236Z,80.13
